Airfield :







YOU CAN JOIN US ON...

 
LOGIN :

Register | Disclaimer

   EN    FR    IT 

 









Legend :    VFR   Marginal VFR   IFR   Intensive IFR   Very Intensive IFR
Visi :
Ceiling :
>= 8 km
>= 3000ft
5 to 8 km
1000 to 3000 ft
1500m to 5 km
500 to 1000 ft
800 to 1500m
200 to 500 ft
< 800m
< 200 ft
Symbols :   Thunderstorms  Fog  Heavy snow  Heavy precipitations  Wind > 20 kt






- Airport Elevation : 1166 ft


KMPV - Edward F Knapp State

CURRENT METAR :
  • 262006Z AUTO 24007KT 10SM FEW025 BKN031 OVC047 02/M02 A2961 RMK AO2 T00221017

EXPIRED METARs :
  • 261951Z AUTO 26003KT 10SM BKN027 BKN033 OVC075 02/M01 A2961 RMK AO2 SLP038 T00221011
  • 261906Z AUTO 25005KT 10SM SCT024 BKN032 02/M01 A2960 RMK AO2 T00221006
  • 261851Z AUTO 00000KT 10SM BKN025 OVC032 03/00 A2960 RMK AO2 SLP036 T00280000
  • 261822Z AUTO 28005KT 10SM FEW017 BKN025 OVC060 02/00 A2961 RMK AO2 T00220000
  • 261751Z AUTO 00000KT 10SM SCT020 BKN042 OVC070 01/M01 A2962 RMK AO2 SNE45 SLP044 P0001 60001 I6001 T00111006 10011 21011 58010

TAF KMPV
Valid from the 26 at 20:00 until the 27 at 18:00 UTC


262000Z 2620/2718 26003KT P6SM VCSH BKN027 OVC035
FM262200 24007KT 5SM -SHSN OVC020
FM270800 23005KT P6SM VCSH OVC025



MET'MAP, your aeronautical weather chart ! - Copyright ORBIFLY December 2007 - Disclaimer

ORBIFLY MET'MAP TEAM :

Programming & Development : Alexandra Zaïnal
Concept & original design : Baudouin d'Aumeries
Assistance for programming : Marc-Olivier Méhu
Technical & hardware support : Manuel Goepfert

Contact : metmap@orbifly.com




SOURCES & CREDITS :

   NOAA